sensor_id;sensor_type;location;lat;lon;timestamp;pressure;altitude;pressure_sealevel;temperature;humidity
74578;BME280;63173;49.086;33.418;2023-03-08T00:02:25;99737.88;;;2.22;100.00
74578;BME280;63173;49.086;33.418;2023-03-08T00:04:54;99742.66;;;2.20;100.00
74578;BME280;63173;49.086;33.418;2023-03-08T00:07:20;99743.06;;;2.29;100.00
74578;BME280;63173;49.086;33.418;2023-03-08T00:09:45;99736.81;;;2.23;100.00
74578;BME280;63173;49.086;33.418;2023-03-08T00:12:11;99731.88;;;2.15;100.00
74578;BME280;63173;49.086;33.418;2023-03-08T00:14:36;99738.69;;;2.23;100.00
74578;BME280;63173;49.086;33.418;2023-03-08T00:17:02;99727.81;;;2.13;100.00
74578;BME280;63173;49.086;33.418;2023-03-08T00:19:27;99721.88;;;2.11;100.00
74578;BME280;63173;49.086;33.418;2023-03-08T00:21:53;99727.75;;;2.08;100.00
74578;BME280;63173;49.086;33.418;2023-03-08T00:24:18;99734.88;;;2.19;100.00
74578;BME280;63173;49.086;33.418;2023-03-08T00:26:44;99739.66;;;2.17;100.00
74578;BME280;63173;49.086;33.418;2023-03-08T00:29:09;99740.63;;;2.11;100.00
74578;BME280;63173;49.086;33.418;2023-03-08T00:31:35;99737.88;;;2.06;100.00
74578;BME280;63173;49.086;33.418;2023-03-08T00:34:01;99745.16;;;2.10;100.00
74578;BME280;63173;49.086;33.418;2023-03-08T00:36:26;99745.09;;;2.05;100.00
74578;BME280;63173;49.086;33.418;2023-03-08T00:38:52;99743.50;;;2.04;100.00
74578;BME280;63173;49.086;33.418;2023-03-08T00:41:18;99734.88;;;2.02;100.00
74578;BME280;63173;49.086;33.418;2023-03-08T00:43:44;99726.44;;;1.93;100.00
74578;BME280;63173;49.086;33.418;2023-03-08T00:46:10;99723.28;;;1.97;100.00
74578;BME280;63173;49.086;33.418;2023-03-08T00:48:35;99713.31;;;1.92;100.00
74578;BME280;63173;49.086;33.418;2023-03-08T00:51:01;99713.16;;;1.99;100.00
74578;BME280;63173;49.086;33.418;2023-03-08T00:53:26;99717.13;;;1.96;100.00
74578;BME280;63173;49.086;33.418;2023-03-08T00:55:57;99716.41;;;2.01;100.00
74578;BME280;63173;49.086;33.418;2023-03-08T00:58:24;99708.56;;;1.99;100.00
74578;BME280;63173;49.086;33.418;2023-03-08T01:00:50;99705.91;;;1.99;100.00
74578;BME280;63173;49.086;33.418;2023-03-08T01:03:16;99713.78;;;2.06;100.00
74578;BME280;63173;49.086;33.418;2023-03-08T01:05:44;99709.81;;;2.08;100.00
74578;BME280;63173;49.086;33.418;2023-03-08T01:08:11;99702.66;;;2.14;100.00
74578;BME280;63173;49.086;33.418;2023-03-08T01:10:37;99695.63;;;2.29;100.00
74578;BME280;63173;49.086;33.418;2023-03-08T01:13:04;99704.81;;;2.17;99.93
74578;BME280;63173;49.086;33.418;2023-03-08T01:15:34;99703.00;;;2.01;99.35
74578;BME280;63173;49.086;33.418;2023-03-08T01:17:59;99698.09;;;2.14;99.52
74578;BME280;63173;49.086;33.418;2023-03-08T01:20:25;99706.28;;;2.24;100.00
74578;BME280;63173;49.086;33.418;2023-03-08T01:22:50;99712.63;;;2.18;99.10
74578;BME280;63173;49.086;33.418;2023-03-08T01:25:16;99706.34;;;1.91;99.78
74578;BME280;63173;49.086;33.418;2023-03-08T01:27:41;99699.09;;;2.08;99.73
74578;BME280;63173;49.086;33.418;2023-03-08T01:30:07;99699.88;;;2.09;99.40
74578;BME280;63173;49.086;33.418;2023-03-08T01:32:33;99686.19;;;2.05;99.70
74578;BME280;63173;49.086;33.418;2023-03-08T01:34:58;99677.72;;;2.13;99.75
74578;BME280;63173;49.086;33.418;2023-03-08T01:37:29;99672.84;;;2.10;99.54
74578;BME280;63173;49.086;33.418;2023-03-08T01:39:55;99679.97;;;1.83;100.00
74578;BME280;63173;49.086;33.418;2023-03-08T01:42:20;99680.88;;;1.72;100.00
74578;BME280;63173;49.086;33.418;2023-03-08T01:44:57;99690.19;;;1.36;100.00
74578;BME280;63173;49.086;33.418;2023-03-08T01:47:26;99686.19;;;1.22;100.00
74578;BME280;63173;49.086;33.418;2023-03-08T01:49:54;99693.00;;;1.30;100.00
74578;BME280;63173;49.086;33.418;2023-03-08T01:52:31;99688.03;;;1.22;100.00
74578;BME280;63173;49.086;33.418;2023-03-08T01:55:01;99690.81;;;1.27;100.00
74578;BME280;63173;49.086;33.418;2023-03-08T01:57:34;99690.31;;;1.30;100.00
74578;BME280;63173;49.086;33.418;2023-03-08T02:00:07;99690.72;;;1.22;100.00
74578;BME280;63173;49.086;33.418;2023-03-08T02:02:42;99682.75;;;1.10;100.00
74578;BME280;63173;49.086;33.418;2023-03-08T02:05:09;99677.44;;;1.27;100.00
74578;BME280;63173;49.086;33.418;2023-03-08T02:07:35;99677.34;;;1.22;100.00
74578;BME280;63173;49.086;33.418;2023-03-08T02:10:01;99676.38;;;1.28;100.00
74578;BME280;63173;49.086;33.418;2023-03-08T02:12:27;99677.53;;;1.32;100.00
74578;BME280;63173;49.086;33.418;2023-03-08T02:14:54;99682.88;;;1.48;100.00
74578;BME280;63173;49.086;33.418;2023-03-08T02:17:20;99673.78;;;1.33;100.00
74578;BME280;63173;49.086;33.418;2023-03-08T02:22:38;99671.78;;;1.40;100.00
74578;BME280;63173;49.086;33.418;2023-03-08T02:25:15;99678.66;;;1.36;100.00
74578;BME280;63173;49.086;33.418;2023-03-08T02:27:41;99675.09;;;1.30;100.00
74578;BME280;63173;49.086;33.418;2023-03-08T02:30:08;99679.00;;;1.39;100.00
74578;BME280;63173;49.086;33.418;2023-03-08T02:32:34;99679.88;;;1.45;100.00
74578;BME280;63173;49.086;33.418;2023-03-08T02:35:00;99678.75;;;1.41;100.00
74578;BME280;63173;49.086;33.418;2023-03-08T02:37:26;99681.72;;;1.44;100.00
74578;BME280;63173;49.086;33.418;2023-03-08T02:39:51;99689.88;;;1.49;100.00
74578;BME280;63173;49.086;33.418;2023-03-08T02:42:17;99684.09;;;1.57;100.00
74578;BME280;63173;49.086;33.418;2023-03-08T02:44:42;99693.13;;;1.51;100.00
74578;BME280;63173;49.086;33.418;2023-03-08T02:47:08;99685.88;;;1.52;100.00
74578;BME280;63173;49.086;33.418;2023-03-08T02:49:33;99679.47;;;1.36;100.00
74578;BME280;63173;49.086;33.418;2023-03-08T02:51:58;99685.81;;;1.47;100.00
74578;BME280;63173;49.086;33.418;2023-03-08T02:54:24;99669.81;;;1.52;100.00
74578;BME280;63173;49.086;33.418;2023-03-08T02:56:49;99664.31;;;1.58;100.00
74578;BME280;63173;49.086;33.418;2023-03-08T02:59:15;99662.59;;;1.69;100.00
74578;BME280;63173;49.086;33.418;2023-03-08T03:01:40;99667.06;;;1.47;100.00
74578;BME280;63173;49.086;33.418;2023-03-08T03:04:05;99662.53;;;1.47;100.00
74578;BME280;63173;49.086;33.418;2023-03-08T03:06:31;99666.19;;;1.41;100.00
74578;BME280;63173;49.086;33.418;2023-03-08T03:08:57;99675.03;;;1.42;100.00
74578;BME280;63173;49.086;33.418;2023-03-08T03:11:22;99683.38;;;1.45;100.00
74578;BME280;63173;49.086;33.418;2023-03-08T03:13:56;99687.50;;;1.36;100.00
74578;BME280;63173;49.086;33.418;2023-03-08T03:16:22;99673.84;;;1.21;100.00
74578;BME280;63173;49.086;33.418;2023-03-08T03:18:47;99665.19;;;1.31;100.00
74578;BME280;63173;49.086;33.418;2023-03-08T03:21:13;99667.84;;;1.31;100.00
74578;BME280;63173;49.086;33.418;2023-03-08T03:23:39;99663.56;;;1.46;100.00
74578;BME280;63173;49.086;33.418;2023-03-08T03:28:30;99643.31;;;1.50;100.00
74578;BME280;63173;49.086;33.418;2023-03-08T03:30:56;99641.75;;;1.54;100.00
74578;BME280;63173;49.086;33.418;2023-03-08T03:33:21;99628.72;;;1.41;100.00
74578;BME280;63173;49.086;33.418;2023-03-08T03:35:47;99629.28;;;1.27;100.00
74578;BME280;63173;49.086;33.418;2023-03-08T03:38:12;99633.25;;;1.08;100.00
74578;BME280;63173;49.086;33.418;2023-03-08T03:40:38;99628.56;;;0.86;100.00
74578;BME280;63173;49.086;33.418;2023-03-08T03:43:03;99630.44;;;0.86;100.00
74578;BME280;63173;49.086;33.418;2023-03-08T03:45:29;99623.06;;;0.93;100.00
74578;BME280;63173;49.086;33.418;2023-03-08T03:47:54;99627.84;;;0.91;100.00
74578;BME280;63173;49.086;33.418;2023-03-08T03:50:19;99618.47;;;0.88;100.00
74578;BME280;63173;49.086;33.418;2023-03-08T03:52:45;99603.06;;;0.95;100.00
74578;BME280;63173;49.086;33.418;2023-03-08T03:55:10;99612.59;;;0.75;100.00
74578;BME280;63173;49.086;33.418;2023-03-08T03:57:35;99613.41;;;0.75;100.00
74578;BME280;63173;49.086;33.418;2023-03-08T04:00:01;99610.75;;;0.75;100.00
74578;BME280;63173;49.086;33.418;2023-03-08T04:02:27;99607.03;;;0.65;100.00
74578;BME280;63173;49.086;33.418;2023-03-08T04:04:52;99619.84;;;0.63;100.00
74578;BME280;63173;49.086;33.418;2023-03-08T04:07:17;99627.84;;;0.63;100.00
74578;BME280;63173;49.086;33.418;2023-03-08T04:09:43;99632.25;;;0.69;100.00
74578;BME280;63173;49.086;33.418;2023-03-08T04:12:09;99631.84;;;0.60;100.00
74578;BME280;63173;49.086;33.418;2023-03-08T04:14:34;99632.91;;;0.76;100.00
74578;BME280;63173;49.086;33.418;2023-03-08T04:17:00;99633.19;;;0.63;100.00
74578;BME280;63173;49.086;33.418;2023-03-08T04:19:25;99634.59;;;0.65;100.00
74578;BME280;63173;49.086;33.418;2023-03-08T04:21:51;99639.28;;;0.58;100.00
74578;BME280;63173;49.086;33.418;2023-03-08T04:24:16;99623.41;;;0.68;100.00
74578;BME280;63173;49.086;33.418;2023-03-08T04:26:41;99619.16;;;0.84;100.00
74578;BME280;63173;49.086;33.418;2023-03-08T04:29:07;99613.28;;;0.70;100.00
74578;BME280;63173;49.086;33.418;2023-03-08T04:31:33;99610.56;;;0.82;100.00
74578;BME280;63173;49.086;33.418;2023-03-08T04:33:59;99602.41;;;0.88;100.00
74578;BME280;63173;49.086;33.418;2023-03-08T04:36:25;99617.44;;;0.78;100.00
74578;BME280;63173;49.086;33.418;2023-03-08T04:38:51;99611.06;;;0.79;100.00
74578;BME280;63173;49.086;33.418;2023-03-08T04:41:17;99612.53;;;0.86;100.00
74578;BME280;63173;49.086;33.418;2023-03-08T04:43:48;99618.59;;;0.82;100.00
74578;BME280;63173;49.086;33.418;2023-03-08T04:46:15;99613.44;;;0.92;100.00
74578;BME280;63173;49.086;33.418;2023-03-08T04:48:40;99610.28;;;0.95;100.00
74578;BME280;63173;49.086;33.418;2023-03-08T04:51:06;99610.06;;;1.13;100.00
74578;BME280;63173;49.086;33.418;2023-03-08T04:53:33;99617.66;;;1.05;100.00
74578;BME280;63173;49.086;33.418;2023-03-08T04:55:59;99605.28;;;1.15;100.00
74578;BME280;63173;49.086;33.418;2023-03-08T04:58:25;99601.72;;;1.26;100.00
74578;BME280;63173;49.086;33.418;2023-03-08T05:00:51;99609.34;;;1.34;100.00
74578;BME280;63173;49.086;33.418;2023-03-08T05:03:17;99606.31;;;1.31;100.00
74578;BME280;63173;49.086;33.418;2023-03-08T05:05:54;99605.34;;;1.53;100.00
74578;BME280;63173;49.086;33.418;2023-03-08T05:08:20;99604.69;;;1.46;100.00
74578;BME280;63173;49.086;33.418;2023-03-08T05:10:58;99600.81;;;1.37;100.00
74578;BME280;63173;49.086;33.418;2023-03-08T05:13:29;99597.66;;;1.40;100.00
74578;BME280;63173;49.086;33.418;2023-03-08T05:15:55;99594.91;;;1.35;100.00
74578;BME280;63173;49.086;33.418;2023-03-08T05:18:21;99601.78;;;1.48;100.00
74578;BME280;63173;49.086;33.418;2023-03-08T05:21:01;99596.66;;;1.63;100.00
74578;BME280;63173;49.086;33.418;2023-03-08T05:23:27;99596.84;;;1.56;100.00
74578;BME280;63173;49.086;33.418;2023-03-08T05:25:55;99599.84;;;1.60;100.00
74578;BME280;63173;49.086;33.418;2023-03-08T05:28:22;99583.31;;;1.84;100.00
74578;BME280;63173;49.086;33.418;2023-03-08T05:30:49;99589.41;;;1.80;100.00
74578;BME280;63173;49.086;33.418;2023-03-08T05:33:16;99586.66;;;1.75;100.00
74578;BME280;63173;49.086;33.418;2023-03-08T05:35:42;99585.44;;;1.82;100.00
74578;BME280;63173;49.086;33.418;2023-03-08T05:38:07;99582.91;;;1.92;100.00
74578;BME280;63173;49.086;33.418;2023-03-08T05:40:33;99587.75;;;1.96;100.00
74578;BME280;63173;49.086;33.418;2023-03-08T05:42:58;99587.69;;;1.90;100.00
74578;BME280;63173;49.086;33.418;2023-03-08T05:45:23;99592.28;;;1.95;100.00
74578;BME280;63173;49.086;33.418;2023-03-08T05:47:49;99588.19;;;2.09;100.00
74578;BME280;63173;49.086;33.418;2023-03-08T05:50:15;99599.41;;;2.06;100.00
74578;BME280;63173;49.086;33.418;2023-03-08T05:52:40;99598.41;;;2.12;100.00
74578;BME280;63173;49.086;33.418;2023-03-08T05:55:07;99596.06;;;2.16;100.00
74578;BME280;63173;49.086;33.418;2023-03-08T05:57:32;99602.22;;;2.16;100.00
74578;BME280;63173;49.086;33.418;2023-03-08T05:59:58;99598.59;;;2.27;100.00
74578;BME280;63173;49.086;33.418;2023-03-08T06:02:23;99606.56;;;2.22;100.00
74578;BME280;63173;49.086;33.418;2023-03-08T06:04:49;99594.47;;;2.20;100.00
74578;BME280;63173;49.086;33.418;2023-03-08T06:07:14;99603.41;;;2.25;100.00
74578;BME280;63173;49.086;33.418;2023-03-08T06:09:39;99601.97;;;2.39;100.00
74578;BME280;63173;49.086;33.418;2023-03-08T06:12:05;99594.47;;;2.41;100.00
74578;BME280;63173;49.086;33.418;2023-03-08T06:14:31;99597.38;;;2.61;100.00
74578;BME280;63173;49.086;33.418;2023-03-08T06:16:56;99593.06;;;2.55;100.00
74578;BME280;63173;49.086;33.418;2023-03-08T06:19:21;99597.38;;;2.61;100.00
74578;BME280;63173;49.086;33.418;2023-03-08T06:21:47;99603.41;;;2.73;100.00
74578;BME280;63173;49.086;33.418;2023-03-08T06:24:12;99603.47;;;2.78;100.00
74578;BME280;63173;49.086;33.418;2023-03-08T06:26:38;99601.63;;;2.84;100.00
74578;BME280;63173;49.086;33.418;2023-03-08T06:29:03;99596.97;;;3.01;100.00
74578;BME280;63173;49.086;33.418;2023-03-08T06:31:28;99585.59;;;3.16;100.00
74578;BME280;63173;49.086;33.418;2023-03-08T06:33:54;99587.66;;;3.09;100.00
74578;BME280;63173;49.086;33.418;2023-03-08T06:36:20;99578.31;;;3.16;100.00
74578;BME280;63173;49.086;33.418;2023-03-08T06:38:46;99582.19;;;3.25;100.00
74578;BME280;63173;49.086;33.418;2023-03-08T06:41:13;99585.78;;;3.41;100.00
74578;BME280;63173;49.086;33.418;2023-03-08T06:43:39;99593.03;;;3.40;100.00
74578;BME280;63173;49.086;33.418;2023-03-08T06:46:06;99589.38;;;3.56;100.00
74578;BME280;63173;49.086;33.418;2023-03-08T06:48:33;99584.81;;;3.57;100.00
74578;BME280;63173;49.086;33.418;2023-03-08T06:50:59;99580.59;;;3.66;100.00
74578;BME280;63173;49.086;33.418;2023-03-08T06:53:24;99591.31;;;3.66;100.00
74578;BME280;63173;49.086;33.418;2023-03-08T06:55:51;99584.66;;;3.73;100.00
74578;BME280;63173;49.086;33.418;2023-03-08T06:58:16;99589.00;;;3.79;100.00
74578;BME280;63173;49.086;33.418;2023-03-08T07:00:42;99593.06;;;3.82;100.00
74578;BME280;63173;49.086;33.418;2023-03-08T07:03:10;99593.84;;;3.82;100.00
74578;BME280;63173;49.086;33.418;2023-03-08T07:05:35;99605.75;;;3.92;100.00
74578;BME280;63173;49.086;33.418;2023-03-08T07:08:01;99589.38;;;4.03;100.00
74578;BME280;63173;49.086;33.418;2023-03-08T07:10:26;99603.63;;;4.04;100.00
74578;BME280;63173;49.086;33.418;2023-03-08T07:12:52;99608.47;;;4.02;100.00
74578;BME280;63173;49.086;33.418;2023-03-08T07:15:19;99601.00;;;4.09;100.00
74578;BME280;63173;49.086;33.418;2023-03-08T07:17:46;99587.84;;;4.17;100.00
74578;BME280;63173;49.086;33.418;2023-03-08T07:20:13;99600.19;;;4.13;100.00
74578;BME280;63173;49.086;33.418;2023-03-08T07:22:43;99601.84;;;4.19;100.00
74578;BME280;63173;49.086;33.418;2023-03-08T07:25:19;99599.22;;;4.29;100.00
74578;BME280;63173;49.086;33.418;2023-03-08T07:27:45;99597.63;;;4.33;100.00
74578;BME280;63173;49.086;33.418;2023-03-08T07:30:13;99597.25;;;4.15;100.00
74578;BME280;63173;49.086;33.418;2023-03-08T07:32:40;99588.47;;;4.29;100.00
74578;BME280;63173;49.086;33.418;2023-03-08T07:35:10;99581.53;;;4.48;100.00
74578;BME280;63173;49.086;33.418;2023-03-08T07:37:35;99568.91;;;4.54;100.00
74578;BME280;63173;49.086;33.418;2023-03-08T07:40:01;99567.06;;;4.74;100.00
74578;BME280;63173;49.086;33.418;2023-03-08T07:42:27;99570.03;;;4.73;100.00
74578;BME280;63173;49.086;33.418;2023-03-08T07:44:52;99566.28;;;4.94;100.00
74578;BME280;63173;49.086;33.418;2023-03-08T07:47:18;99571.97;;;5.03;100.00
74578;BME280;63173;49.086;33.418;2023-03-08T07:49:44;99560.66;;;4.96;100.00
74578;BME280;63173;49.086;33.418;2023-03-08T07:52:09;99569.53;;;5.01;100.00
74578;BME280;63173;49.086;33.418;2023-03-08T07:54:34;99571.69;;;4.99;100.00
74578;BME280;63173;49.086;33.418;2023-03-08T07:57:00;99584.59;;;5.02;100.00
74578;BME280;63173;49.086;33.418;2023-03-08T07:59:26;99584.34;;;5.09;100.00
74578;BME280;63173;49.086;33.418;2023-03-08T08:01:51;99578.13;;;4.88;100.00
74578;BME280;63173;49.086;33.418;2023-03-08T08:04:17;99573.84;;;4.97;100.00
74578;BME280;63173;49.086;33.418;2023-03-08T08:06:42;99576.50;;;4.92;100.00
74578;BME280;63173;49.086;33.418;2023-03-08T08:09:11;99571.94;;;4.93;100.00
74578;BME280;63173;49.086;33.418;2023-03-08T08:11:37;99574.91;;;5.01;100.00
74578;BME280;63173;49.086;33.418;2023-03-08T08:14:04;99587.56;;;4.96;100.00
74578;BME280;63173;49.086;33.418;2023-03-08T08:16:30;99578.94;;;4.94;100.00
74578;BME280;63173;49.086;33.418;2023-03-08T08:18:55;99560.66;;;4.96;100.00
74578;BME280;63173;49.086;33.418;2023-03-08T08:21:21;99571.41;;;4.96;100.00
74578;BME280;63173;49.086;33.418;2023-03-08T08:23:47;99573.84;;;4.97;100.00
74578;BME280;63173;49.086;33.418;2023-03-08T08:26:15;99573.03;;;4.97;100.00
74578;BME280;63173;49.086;33.418;2023-03-08T08:28:42;99567.91;;;4.95;100.00
74578;BME280;63173;49.086;33.418;2023-03-08T08:31:11;99553.09;;;5.08;100.00
74578;BME280;63173;49.086;33.418;2023-03-08T08:33:37;99552.03;;;5.09;100.00
74578;BME280;63173;49.086;33.418;2023-03-08T08:36:08;99550.69;;;5.16;100.00
74578;BME280;63173;49.086;33.418;2023-03-08T08:38:35;99542.63;;;5.06;100.00
74578;BME280;63173;49.086;33.418;2023-03-08T08:41:03;99539.09;;;5.21;100.00
74578;BME280;63173;49.086;33.418;2023-03-08T08:43:29;99548.78;;;5.17;100.00
74578;BME280;63173;49.086;33.418;2023-03-08T08:45:58;99552.31;;;5.22;100.00
74578;BME280;63173;49.086;33.418;2023-03-08T08:48:24;99564.44;;;5.35;100.00
74578;BME280;63173;49.086;33.418;2023-03-08T08:50:49;99564.97;;;5.22;100.00
74578;BME280;63173;49.086;33.418;2023-03-08T08:53:16;99563.34;;;5.31;100.00
74578;BME280;63173;49.086;33.418;2023-03-08T08:55:42;99552.84;;;5.44;100.00
74578;BME280;63173;49.086;33.418;2023-03-08T08:58:08;99545.31;;;5.36;100.00
74578;BME280;63173;49.086;33.418;2023-03-08T09:00:34;99541.53;;;5.42;100.00
74578;BME280;63173;49.086;33.418;2023-03-08T09:03:01;99536.66;;;5.69;100.00
74578;BME280;63173;49.086;33.418;2023-03-08T09:05:27;99535.81;;;5.69;99.67
74578;BME280;63173;49.086;33.418;2023-03-08T09:07:53;99549.03;;;5.60;99.07
74578;BME280;63173;49.086;33.418;2023-03-08T09:10:20;99532.03;;;5.85;99.68
74578;BME280;63173;49.086;33.418;2023-03-08T09:12:45;99516.94;;;5.94;98.33
74578;BME280;63173;49.086;33.418;2023-03-08T09:15:11;99528.75;;;6.03;98.52
74578;BME280;63173;49.086;33.418;2023-03-08T09:17:39;99529.50;;;6.19;96.72
74578;BME280;63173;49.086;33.418;2023-03-08T09:20:05;99533.03;;;6.04;97.73
74578;BME280;63173;49.086;33.418;2023-03-08T09:22:34;99521.63;;;6.27;96.97
74578;BME280;63173;49.086;33.418;2023-03-08T09:25:00;99526.53;;;6.15;97.70
74578;BME280;63173;49.086;33.418;2023-03-08T09:27:25;99516.75;;;6.29;96.09
74578;BME280;63173;49.086;33.418;2023-03-08T09:29:50;99527.19;;;6.51;96.94
74578;BME280;63173;49.086;33.418;2023-03-08T09:32:16;99526.91;;;6.47;95.12
74578;BME280;63173;49.086;33.418;2023-03-08T09:34:41;99542.72;;;6.69;94.47
74578;BME280;63173;49.086;33.418;2023-03-08T09:37:09;99529.97;;;6.75;93.71
74578;BME280;63173;49.086;33.418;2023-03-08T09:39:35;99534.63;;;6.69;92.89
74578;BME280;63173;49.086;33.418;2023-03-08T09:42:03;99530.97;;;6.45;93.66
74578;BME280;63173;49.086;33.418;2023-03-08T09:45:32;99522.94;;;6.79;93.56
74578;BME280;63173;49.086;33.418;2023-03-08T09:50:55;99530.97;;;6.89;92.45
74578;BME280;63173;49.086;33.418;2023-03-08T09:56:17;99531.13;;;7.36;89.90
74578;BME280;63173;49.086;33.418;2023-03-08T10:16:20;99508.84;;;8.43;83.19
74578;BME280;63173;49.086;33.418;2023-03-08T10:21:38;99502.09;;;8.41;83.22
74578;BME280;63173;49.086;33.418;2023-03-08T10:24:29;99515.50;;;8.51;83.60
74578;BME280;63173;49.086;33.418;2023-03-08T10:27:22;99500.56;;;8.53;82.24
74578;BME280;63173;49.086;33.418;2023-03-08T10:29:53;99503.34;;;9.18;80.45
74578;BME280;63173;49.086;33.418;2023-03-08T10:32:20;99488.19;;;9.90;77.75
74578;BME280;63173;49.086;33.418;2023-03-08T10:34:46;99487.06;;;9.36;77.86
74578;BME280;63173;49.086;33.418;2023-03-08T10:37:12;99492.09;;;9.43;78.17
74578;BME280;63173;49.086;33.418;2023-03-08T10:39:53;99470.13;;;9.99;76.10
74578;BME280;63173;49.086;33.418;2023-03-08T10:42:21;99472.53;;;10.00;76.34
74578;BME280;63173;49.086;33.418;2023-03-08T10:44:54;99472.97;;;10.57;72.69
74578;BME280;63173;49.086;33.418;2023-03-08T10:47:30;99470.41;;;10.38;74.03
74578;BME280;63173;49.086;33.418;2023-03-08T10:50:18;99468.66;;;10.20;73.40
74578;BME280;63173;49.086;33.418;2023-03-08T10:52:45;99477.47;;;10.25;73.46
74578;BME280;63173;49.086;33.418;2023-03-08T10:55:19;99467.34;;;10.17;73.32
74578;BME280;63173;49.086;33.418;2023-03-08T10:57:56;99462.34;;;10.47;71.75
74578;BME280;63173;49.086;33.418;2023-03-08T11:00:35;99448.34;;;10.75;71.02
74578;BME280;63173;49.086;33.418;2023-03-08T11:03:22;99433.84;;;11.02;70.79
74578;BME280;63173;49.086;33.418;2023-03-08T11:08:34;99443.22;;;11.18;69.09
74578;BME280;63173;49.086;33.418;2023-03-08T11:11:07;99445.38;;;11.29;68.11
74578;BME280;63173;49.086;33.418;2023-03-08T11:13:44;99431.63;;;11.26;68.04
74578;BME280;63173;49.086;33.418;2023-03-08T11:21:54;99430.59;;;10.69;71.71
74578;BME280;63173;49.086;33.418;2023-03-08T11:54:46;99425.84;;;11.27;66.05
74578;BME280;63173;49.086;33.418;2023-03-08T11:57:17;99415.63;;;11.64;65.71
74578;BME280;63173;49.086;33.418;2023-03-08T11:59:48;99416.22;;;11.52;65.26
74578;BME280;63173;49.086;33.418;2023-03-08T12:02:22;99418.63;;;11.62;66.00
74578;BME280;63173;49.086;33.418;2023-03-08T12:13:09;99423.72;;;11.47;65.50
74578;BME280;63173;49.086;33.418;2023-03-08T12:15:48;99428.13;;;11.34;65.25
74578;BME280;63173;49.086;33.418;2023-03-08T12:20:59;99425.56;;;11.68;64.67
74578;BME280;63173;49.086;33.418;2023-03-08T12:26:22;99426.22;;;11.43;65.01
74578;BME280;63173;49.086;33.418;2023-03-08T12:28:53;99422.81;;;11.60;64.32
74578;BME280;63173;49.086;33.418;2023-03-08T12:31:24;99423.13;;;11.58;64.63
74578;BME280;63173;49.086;33.418;2023-03-08T12:33:52;99416.38;;;11.56;64.88
74578;BME280;63173;49.086;33.418;2023-03-08T12:36:18;99417.63;;;11.41;65.43
74578;BME280;63173;49.086;33.418;2023-03-08T12:38:46;99417.38;;;11.60;64.17
74578;BME280;63173;49.086;33.418;2023-03-08T12:41:29;99419.69;;;11.44;64.77
74578;BME280;63173;49.086;33.418;2023-03-08T12:44:23;99420.63;;;11.70;64.28
74578;BME280;63173;49.086;33.418;2023-03-08T12:47:00;99417.13;;;11.78;64.02
74578;BME280;63173;49.086;33.418;2023-03-08T12:49:28;99417.94;;;11.87;63.78
74578;BME280;63173;49.086;33.418;2023-03-08T12:51:57;99414.75;;;11.77;63.98
74578;BME280;63173;49.086;33.418;2023-03-08T12:54:23;99418.53;;;11.67;64.04
74578;BME280;63173;49.086;33.418;2023-03-08T12:56:51;99415.50;;;11.77;64.11
74578;BME280;63173;49.086;33.418;2023-03-08T13:02:31;99407.66;;;11.67;64.04
74578;BME280;63173;49.086;33.418;2023-03-08T13:04:34;99405.25;;;11.66;64.17
74578;BME280;63173;49.086;33.418;2023-03-08T13:14:41;99396.19;;;11.48;64.95
74578;BME280;63173;49.086;33.418;2023-03-08T13:19:54;99391.91;;;11.64;64.28
74578;BME280;63173;49.086;33.418;2023-03-08T13:22:24;99391.03;;;11.69;63.96
74578;BME280;63173;49.086;33.418;2023-03-08T13:24:56;99380.03;;;11.91;63.65
74578;BME280;63173;49.086;33.418;2023-03-08T13:27:54;99401.78;;;11.82;62.63
74578;BME280;63173;49.086;33.418;2023-03-08T13:30:24;99373.00;;;11.98;62.46
74578;BME280;63173;49.086;33.418;2023-03-08T13:32:50;99368.84;;;12.01;63.17
74578;BME280;63173;49.086;33.418;2023-03-08T13:35:17;99375.72;;;11.98;62.94
74578;BME280;63173;49.086;33.418;2023-03-08T13:37:51;99379.41;;;12.02;62.15
74578;BME280;63173;49.086;33.418;2023-03-08T13:40:19;99357.16;;;12.17;61.77
74578;BME280;63173;49.086;33.418;2023-03-08T13:42:59;99359.38;;;11.98;62.36
74578;BME280;63173;49.086;33.418;2023-03-08T13:45:26;99360.19;;;11.99;61.89
74578;BME280;63173;49.086;33.418;2023-03-08T13:47:53;99363.69;;;11.91;62.15
74578;BME280;63173;49.086;33.418;2023-03-08T13:50:29;99365.97;;;11.97;62.62
74578;BME280;63173;49.086;33.418;2023-03-08T13:52:55;99361.50;;;12.01;63.14
74578;BME280;63173;49.086;33.418;2023-03-08T13:55:30;99367.22;;;12.00;62.18
74578;BME280;63173;49.086;33.418;2023-03-08T13:57:57;99367.53;;;11.98;61.74
74578;BME280;63173;49.086;33.418;2023-03-08T14:02:54;99373.34;;;12.14;61.55
74578;BME280;63173;49.086;33.418;2023-03-08T14:05:24;99368.81;;;11.92;61.90
74578;BME280;63173;49.086;33.418;2023-03-08T14:08:00;99380.69;;;12.05;61.69
74578;BME280;63173;49.086;33.418;2023-03-08T14:13:43;99374.28;;;12.01;62.58
74578;BME280;63173;49.086;33.418;2023-03-08T14:16:22;99372.53;;;12.05;61.98
74578;BME280;63173;49.086;33.418;2023-03-08T14:18:48;99375.75;;;12.07;61.89
74578;BME280;63173;49.086;33.418;2023-03-08T14:21:16;99369.50;;;12.06;62.25
74578;BME280;63173;49.086;33.418;2023-03-08T14:23:52;99370.28;;;11.98;62.42
74578;BME280;63173;49.086;33.418;2023-03-08T14:26:32;99363.53;;;11.87;63.15
74578;BME280;63173;49.086;33.418;2023-03-08T14:29:25;99370.28;;;11.98;61.88
74578;BME280;63173;49.086;33.418;2023-03-08T14:39:48;99357.00;;;11.97;60.85
74578;BME280;63173;49.086;33.418;2023-03-08T14:44:40;99363.72;;;11.99;57.75
74578;BME280;63173;49.086;33.418;2023-03-08T14:47:21;99357.78;;;12.06;57.20
74578;BME280;63173;49.086;33.418;2023-03-08T14:49:56;99350.91;;;12.00;56.76